createdAt,value
2019-04-19T00:00:12.736Z,63.60
2019-04-19T00:02:43.062Z,63.60
2019-04-19T00:05:15.345Z,63.60
2019-04-19T00:07:49.541Z,63.40
2019-04-19T00:10:28.648Z,63.40
2019-04-19T00:12:50.367Z,64.00
2019-04-19T00:15:13.960Z,63.80
2019-04-19T00:17:42.136Z,63.50
2019-04-19T00:20:31.452Z,63.20
2019-04-19T00:22:53.559Z,63.40
2019-04-19T00:25:09.937Z,63.60
2019-04-19T00:27:44.193Z,63.30
2019-04-19T00:30:21.849Z,63.30
2019-04-19T00:32:53.680Z,63.90
2019-04-19T00:35:07.447Z,63.60
2019-04-19T00:37:36.461Z,63.60
2019-04-19T00:40:33.080Z,63.70
2019-04-19T00:43:06.284Z,63.30
2019-04-19T00:45:58.526Z,63.00
2019-04-19T00:48:24.288Z,63.20
2019-04-19T00:50:52.944Z,63.30
2019-04-19T00:53:19.355Z,63.00
2019-04-19T00:55:44.054Z,62.90
2019-04-19T00:58:13.626Z,62.70
2019-04-19T01:00:36.763Z,63.30
2019-04-19T01:03:04.241Z,62.80
2019-04-19T01:05:43.369Z,63.20
2019-04-19T01:08:07.307Z,62.60
2019-04-19T01:10:43.787Z,62.80
2019-04-19T01:13:11.129Z,63.00
2019-04-19T01:15:40.368Z,63.40
2019-04-19T01:18:19.025Z,63.20
2019-04-19T01:20:31.070Z,63.30
2019-04-19T01:23:05.681Z,63.00
2019-04-19T01:25:30.268Z,63.10
2019-04-19T01:28:08.551Z,63.00
2019-04-19T01:30:33.331Z,62.80
2019-04-19T01:32:59.763Z,62.60
2019-04-19T01:35:28.179Z,62.70
2019-04-19T01:38:01.942Z,62.70
2019-04-19T01:40:40.809Z,63.50
2019-04-19T01:43:13.064Z,63.40
2019-04-19T01:46:03.665Z,63.40
2019-04-19T01:48:50.571Z,63.00
2019-04-19T01:51:49.099Z,63.20
2019-04-19T01:54:29.624Z,63.30
2019-04-19T01:56:54.914Z,63.10
2019-04-19T01:59:20.363Z,63.40
2019-04-19T02:01:52.766Z,64.40
2019-04-19T02:04:24.322Z,64.00
2019-04-19T02:06:49.561Z,63.80
2019-04-19T02:09:30.349Z,63.70
2019-04-19T02:11:59.083Z,63.80
2019-04-19T02:14:23.609Z,63.70
2019-04-19T02:16:52.647Z,64.00
2019-04-19T02:19:23.228Z,63.80
2019-04-19T02:21:50.690Z,64.50
2019-04-19T02:24:21.622Z,64.50
2019-04-19T02:26:54.321Z,64.90
2019-04-19T02:29:22.022Z,65.30
2019-04-19T02:32:13.523Z,65.50
2019-04-19T02:34:39.311Z,65.10
2019-04-19T02:37:15.745Z,64.90
2019-04-19T02:39:47.612Z,65.40
2019-04-19T02:44:51.273Z,65.40
2019-04-19T02:47:21.743Z,64.60
2019-04-19T02:52:21.248Z,64.50
2019-04-19T02:55:10.840Z,64.60
2019-04-19T03:00:52.747Z,64.60
2019-04-19T03:03:22.090Z,64.20
2019-04-19T03:05:41.872Z,63.90
2019-04-19T03:07:53.833Z,64.20
2019-04-19T03:10:25.613Z,64.20
2019-04-19T03:13:08.058Z,64.20
2019-04-19T03:15:44.095Z,64.30
2019-04-19T03:18:16.516Z,64.30
2019-04-19T03:20:36.215Z,64.40
2019-04-19T03:23:03.142Z,64.70
2019-04-19T03:25:35.805Z,64.70
2019-04-19T03:28:03.284Z,64.60
2019-04-19T03:30:45.844Z,64.80
2019-04-19T03:33:38.653Z,64.60
2019-04-19T03:35:47.966Z,64.80
2019-04-19T03:38:11.511Z,64.80
2019-04-19T03:40:39.024Z,64.80
2019-04-19T03:43:31.390Z,64.50
2019-04-19T03:45:56.177Z,64.60
2019-04-19T03:48:27.249Z,64.80
2019-04-19T03:51:00.373Z,64.80
2019-04-19T03:53:30.983Z,64.90
2019-04-19T03:56:01.799Z,64.90
2019-04-19T03:58:11.386Z,64.70
2019-04-19T04:00:34.545Z,65.00
2019-04-19T04:03:08.870Z,65.10
2019-04-19T04:05:36.743Z,65.20
2019-04-19T04:08:11.390Z,65.40
2019-04-19T04:10:46.010Z,65.30
2019-04-19T04:13:43.110Z,65.10
2019-04-19T04:16:32.727Z,65.50
2019-04-19T04:18:55.480Z,65.60
2019-04-19T04:21:28.361Z,65.30
2019-04-19T04:24:05.287Z,65.60
2019-04-19T04:26:32.052Z,65.40
2019-04-19T04:29:04.989Z,65.60
2019-04-19T04:31:34.405Z,65.60
2019-04-19T04:34:03.486Z,65.60
2019-04-19T04:36:42.298Z,65.70
2019-04-19T04:38:53.038Z,65.90
2019-04-19T04:41:27.880Z,65.60
2019-04-19T04:44:13.575Z,65.70
2019-04-19T04:47:02.376Z,65.90
2019-04-19T04:49:41.364Z,65.90
2019-04-19T04:52:15.052Z,65.80
2019-04-19T04:54:35.500Z,65.90
2019-04-19T04:57:30.667Z,66.10
2019-04-19T04:59:55.592Z,66.50
2019-04-19T05:02:40.134Z,66.70
2019-04-19T05:05:10.168Z,66.70
2019-04-19T05:07:40.578Z,67.30
2019-04-19T05:10:09.382Z,67.40
2019-04-19T05:13:01.187Z,67.40
2019-04-19T05:15:07.234Z,67.30
2019-04-19T05:17:49.664Z,67.00
2019-04-19T05:20:09.127Z,66.90
2019-04-19T05:22:32.541Z,67.30
2019-04-19T05:25:19.298Z,67.60
2019-04-19T05:27:38.961Z,67.40
2019-04-19T05:29:53.378Z,67.40
2019-04-19T05:32:28.091Z,67.90
2019-04-19T05:35:07.000Z,67.50
2019-04-19T05:37:45.260Z,67.60
2019-04-19T05:40:19.176Z,68.10
2019-04-19T05:43:11.859Z,67.90
2019-04-19T05:46:07.142Z,67.90
2019-04-19T05:48:00.527Z,67.50
2019-04-19T05:50:39.553Z,68.20
2019-04-19T05:53:07.885Z,68.20
2019-04-19T05:55:22.266Z,68.50
2019-04-19T05:58:06.670Z,68.20
2019-04-19T06:00:41.249Z,68.00
2019-04-19T06:03:05.242Z,68.20
2019-04-19T06:05:55.455Z,68.30
2019-04-19T06:08:06.299Z,68.50
2019-04-19T06:10:25.469Z,69.20
2019-04-19T06:13:00.330Z,68.60
2019-04-19T06:15:51.135Z,68.60
2019-04-19T06:18:31.581Z,68.70
2019-04-19T06:21:10.578Z,69.20
2019-04-19T06:23:38.803Z,69.10
2019-04-19T06:26:35.670Z,69.40
2019-04-19T06:28:48.147Z,69.30
2019-04-19T06:31:13.610Z,69.60
2019-04-19T06:33:40.278Z,69.30
2019-04-19T06:35:53.738Z,69.40
2019-04-19T06:38:20.428Z,69.60
2019-04-19T06:40:54.444Z,69.60
2019-04-19T06:43:32.496Z,69.50
2019-04-19T06:46:02.637Z,69.80
2019-04-19T06:48:22.219Z,69.70
2019-04-19T06:50:52.495Z,69.60
2019-04-19T06:53:16.864Z,69.60
2019-04-19T06:55:49.488Z,69.70
2019-04-19T06:58:22.098Z,69.80
2019-04-19T07:00:59.516Z,69.50
2019-04-19T07:03:14.881Z,69.70
2019-04-19T07:06:05.237Z,69.90
2019-04-19T07:11:07.189Z,69.80
2019-04-19T07:13:24.896Z,69.50
2019-04-19T07:16:08.618Z,69.40
2019-04-19T07:18:30.412Z,69.40
2019-04-19T07:21:01.939Z,69.40
2019-04-19T07:23:33.168Z,69.40
2019-04-19T07:26:08.693Z,68.50
2019-04-19T07:28:19.548Z,68.90
2019-04-19T07:30:42.751Z,68.80
2019-04-19T07:33:15.497Z,68.90
2019-04-19T07:36:01.807Z,68.90
2019-04-19T07:38:27.330Z,68.80
2019-04-19T07:41:01.567Z,68.80
2019-04-19T07:43:23.614Z,69.00
2019-04-19T07:46:08.121Z,68.80
2019-04-19T07:48:40.977Z,68.70
2019-04-19T07:51:15.200Z,68.60
2019-04-19T07:53:44.310Z,69.00
2019-04-19T07:56:21.942Z,69.20
2019-04-19T07:58:55.491Z,69.10
2019-04-19T08:01:47.184Z,69.30
2019-04-19T08:04:24.745Z,69.20
2019-04-19T08:06:41.130Z,69.50
2019-04-19T08:09:05.254Z,69.10
2019-04-19T08:11:46.488Z,69.30
2019-04-19T08:14:01.267Z,69.20
2019-04-19T08:17:04.363Z,68.80
2019-04-19T08:28:46.577Z,69.00
2019-04-19T08:31:09.302Z,68.70
2019-04-19T08:33:38.832Z,69.10
2019-04-19T08:36:09.482Z,68.90
2019-04-19T08:38:35.897Z,69.00
2019-04-19T08:41:13.694Z,69.30
2019-04-19T08:43:51.015Z,69.40
2019-04-19T08:46:16.057Z,69.60
2019-04-19T08:48:54.491Z,69.70
2019-04-19T08:51:43.281Z,69.70
2019-04-19T08:54:32.505Z,69.80
2019-04-19T08:56:52.505Z,69.90
2019-04-19T09:02:03.049Z,70.30
2019-04-19T09:04:33.053Z,69.40
2019-04-19T09:09:37.223Z,69.40
2019-04-19T09:12:03.897Z,69.60
2019-04-19T09:14:36.580Z,69.60
2019-04-19T09:17:10.106Z,69.50
2019-04-19T09:19:44.561Z,69.50
2019-04-19T09:21:54.301Z,69.40
2019-04-19T09:24:16.033Z,69.30
2019-04-19T09:26:54.302Z,69.30
2019-04-19T09:29:34.077Z,69.50
2019-04-19T09:31:51.205Z,69.90
2019-04-19T09:34:14.155Z,69.80
2019-04-19T09:36:49.215Z,70.00
2019-04-19T09:39:24.980Z,69.90
2019-04-19T09:41:54.695Z,70.00
2019-04-19T09:44:25.771Z,69.90
2019-04-19T09:46:46.732Z,70.60
2019-04-19T09:49:26.589Z,70.00
2019-04-19T09:51:58.769Z,69.90
2019-04-19T09:54:39.111Z,69.90
2019-04-19T09:57:01.309Z,70.00
2019-04-19T09:59:24.089Z,70.20
2019-04-19T10:01:48.616Z,70.40
2019-04-19T10:04:14.698Z,70.10
2019-04-19T10:06:42.803Z,70.30
2019-04-19T10:09:20.715Z,70.30
2019-04-19T10:11:46.637Z,70.10
2019-04-19T10:14:15.098Z,70.40
2019-04-19T10:17:00.406Z,70.70
2019-04-19T10:19:28.632Z,70.90
2019-04-19T10:22:00.411Z,70.90
2019-04-19T10:24:29.456Z,70.80
2019-04-19T10:27:10.816Z,70.90
2019-04-19T10:29:43.523Z,70.70
2019-04-19T10:32:20.303Z,70.70
2019-04-19T10:34:58.780Z,70.50
2019-04-19T10:37:28.246Z,70.50
2019-04-19T10:39:57.430Z,70.50
2019-04-19T10:42:25.404Z,70.40
2019-04-19T10:44:54.042Z,70.50
2019-04-19T10:47:22.898Z,70.60
2019-04-19T10:49:56.101Z,70.90
2019-04-19T10:52:25.621Z,70.90
2019-04-19T10:54:55.381Z,70.70
2019-04-19T10:57:25.382Z,70.60
2019-04-19T10:59:58.671Z,70.40
2019-04-19T11:02:29.751Z,71.40
2019-04-19T11:04:58.745Z,70.50
2019-04-19T11:07:27.601Z,70.70
2019-04-19T11:09:57.752Z,70.60
2019-04-19T11:12:26.254Z,70.40
2019-04-19T11:14:54.650Z,69.80
2019-04-19T11:17:23.359Z,69.80
2019-04-19T11:20:04.698Z,69.70
2019-04-19T11:22:21.734Z,69.30
2019-04-19T11:24:50.004Z,68.60
2019-04-19T11:27:19.237Z,67.80
2019-04-19T11:29:48.374Z,67.90
2019-04-19T11:32:22.031Z,67.80
2019-04-19T11:34:51.336Z,68.80
2019-04-19T11:37:20.095Z,67.90
2019-04-19T11:39:48.726Z,65.90
2019-04-19T11:42:17.254Z,65.30
2019-04-19T11:44:45.617Z,64.90
2019-04-19T11:47:15.199Z,64.50
2019-04-19T11:49:45.179Z,64.20
2019-04-19T11:52:26.487Z,64.00
2019-04-19T11:54:54.780Z,64.00
2019-04-19T11:57:32.791Z,63.50
2019-04-19T12:00:29.680Z,63.10
2019-04-19T12:02:58.140Z,63.20
2019-04-19T12:05:30.370Z,63.00
2019-04-19T12:07:55.213Z,63.30
2019-04-19T12:10:24.139Z,62.80
2019-04-19T12:12:53.011Z,61.70
2019-04-19T12:15:25.213Z,60.30
2019-04-19T12:17:52.326Z,59.30
2019-04-19T12:20:21.305Z,59.60
2019-04-19T12:22:50.058Z,59.80
2019-04-19T12:25:17.826Z,60.00
2019-04-19T12:27:46.300Z,60.00
2019-04-19T12:30:14.451Z,60.50
2019-04-19T12:32:49.495Z,59.90
2019-04-19T12:35:18.536Z,59.90
2019-04-19T12:37:47.492Z,59.90
2019-04-19T12:40:15.401Z,59.80
2019-04-19T12:42:46.322Z,59.20
2019-04-19T12:45:15.698Z,59.30
2019-04-19T12:47:45.005Z,59.30
2019-04-19T12:50:14.654Z,59.30
2019-04-19T12:52:42.544Z,58.80
2019-04-19T12:55:10.466Z,58.40
2019-04-19T12:57:43.821Z,58.30
2019-04-19T13:00:14.610Z,58.30
2019-04-19T13:02:47.534Z,58.10
2019-04-19T13:05:18.588Z,58.20
2019-04-19T13:07:47.665Z,58.30
2019-04-19T13:10:15.452Z,57.80
2019-04-19T13:12:44.012Z,57.80
2019-04-19T13:15:14.098Z,57.80
2019-04-19T13:17:42.358Z,57.70
2019-04-19T13:20:17.538Z,57.60
2019-04-19T13:22:40.719Z,57.40
2019-04-19T13:25:09.443Z,57.30
2019-04-19T13:27:45.698Z,57.10
2019-04-19T13:30:20.418Z,56.70
2019-04-19T13:32:39.810Z,56.50
2019-04-19T13:35:07.564Z,56.20
2019-04-19T13:37:49.471Z,55.90
2019-04-19T13:40:37.133Z,55.60
2019-04-19T13:43:05.335Z,55.90
2019-04-19T13:45:35.227Z,55.70
2019-04-19T13:48:04.754Z,55.40
2019-04-19T13:50:37.511Z,55.00
2019-04-19T13:53:02.639Z,54.70
2019-04-19T13:55:30.710Z,54.20
2019-04-19T13:57:59.749Z,54.10
2019-04-19T14:00:38.819Z,53.90
2019-04-19T14:03:07.519Z,53.50
2019-04-19T14:05:36.117Z,53.50
2019-04-19T14:08:04.157Z,53.10
2019-04-19T14:10:32.888Z,53.00
2019-04-19T14:13:01.023Z,53.00
2019-04-19T14:15:28.944Z,53.10
2019-04-19T14:17:56.895Z,52.90
2019-04-19T14:20:34.830Z,52.90
2019-04-19T14:22:55.192Z,53.10
2019-04-19T14:25:23.300Z,53.10
2019-04-19T14:27:51.442Z,52.70
2019-04-19T14:30:20.020Z,52.50
2019-04-19T14:32:49.463Z,52.40
2019-04-19T14:35:17.669Z,52.20
2019-04-19T14:37:45.987Z,51.80
2019-04-19T14:40:15.680Z,51.30
2019-04-19T14:42:44.571Z,51.60
2019-04-19T14:45:14.237Z,51.70
2019-04-19T14:47:42.389Z,51.80
2019-04-19T14:50:10.748Z,51.80
2019-04-19T14:52:38.322Z,51.80
2019-04-19T14:55:06.207Z,51.70
2019-04-19T14:57:34.219Z,51.00
2019-04-19T15:00:03.111Z,50.70
2019-04-19T15:02:54.569Z,51.20
2019-04-19T15:05:29.812Z,51.50
2019-04-19T15:07:58.831Z,51.60
2019-04-19T15:10:27.344Z,51.20
2019-04-19T15:12:56.660Z,51.10
2019-04-19T15:15:24.978Z,51.00
2019-04-19T15:17:54.077Z,50.80
2019-04-19T15:20:26.458Z,50.80
2019-04-19T15:22:54.300Z,50.70
2019-04-19T15:25:23.646Z,50.50
2019-04-19T15:27:52.813Z,50.00
2019-04-19T15:30:21.437Z,50.20
2019-04-19T15:32:50.598Z,49.70
2019-04-19T15:35:19.516Z,49.90
2019-04-19T15:37:47.758Z,50.40
2019-04-19T15:40:20.278Z,50.50
2019-04-19T15:42:48.552Z,49.90
2019-04-19T15:45:18.787Z,49.60
2019-04-19T15:47:46.650Z,49.00
2019-04-19T15:50:15.920Z,48.80
2019-04-19T15:52:44.510Z,49.30
2019-04-19T15:55:12.503Z,49.30
2019-04-19T15:57:41.776Z,49.00
2019-04-19T16:00:18.434Z,49.10
2019-04-19T16:02:58.005Z,48.60
2019-04-19T16:05:51.974Z,48.50
2019-04-19T16:08:29.083Z,48.20
2019-04-19T16:11:16.372Z,48.30
2019-04-19T16:13:44.251Z,48.20
2019-04-19T16:16:12.250Z,48.80
2019-04-19T16:18:40.310Z,47.70
2019-04-19T16:21:20.119Z,47.30
2019-04-19T16:23:38.382Z,48.00
2019-04-19T16:26:06.861Z,47.60
2019-04-19T16:28:35.154Z,47.70
2019-04-19T16:31:04.175Z,47.90
2019-04-19T16:33:31.978Z,48.10
2019-04-19T16:36:43.682Z,47.90
2019-04-19T16:39:09.374Z,47.80
2019-04-19T16:41:44.885Z,47.50
2019-04-19T16:44:39.269Z,47.60
2019-04-19T16:47:15.349Z,47.60
2019-04-19T16:50:10.257Z,47.90
2019-04-19T16:52:54.618Z,48.00
2019-04-19T16:55:51.904Z,48.20
2019-04-19T16:58:24.506Z,48.00
2019-04-19T17:01:14.659Z,48.00
2019-04-19T17:03:43.606Z,47.40
2019-04-19T17:06:12.903Z,47.60
2019-04-19T17:08:50.386Z,47.70
2019-04-19T17:11:43.843Z,47.80
2019-04-19T17:14:34.773Z,47.80
2019-04-19T17:17:21.057Z,47.40
2019-04-19T17:20:19.510Z,47.40
2019-04-19T17:23:01.101Z,47.60
2019-04-19T17:25:57.082Z,47.90
2019-04-19T17:28:23.397Z,48.40
2019-04-19T17:31:09.514Z,48.50
2019-04-19T17:33:42.124Z,48.80
2019-04-19T17:36:33.229Z,49.00
2019-04-19T17:39:13.010Z,48.70
2019-04-19T17:41:43.457Z,48.80
2019-04-19T17:44:22.030Z,49.10
2019-04-19T17:46:58.219Z,49.20
2019-04-19T17:49:46.580Z,49.50
2019-04-19T17:52:42.244Z,49.80
2019-04-19T17:55:25.106Z,50.00
2019-04-19T17:57:55.071Z,50.50
2019-04-19T18:00:39.967Z,50.60
2019-04-19T18:03:08.710Z,50.90
2019-04-19T18:05:38.112Z,51.30
2019-04-19T18:08:22.557Z,51.90
2019-04-19T18:10:47.045Z,52.30
2019-04-19T18:13:13.015Z,52.60
2019-04-19T18:15:42.567Z,52.90
2019-04-19T18:18:12.002Z,53.20
2019-04-19T18:20:48.925Z,53.30
2019-04-19T18:23:27.181Z,53.30
2019-04-19T18:25:42.911Z,53.10
2019-04-19T18:28:12.966Z,53.60
2019-04-19T18:30:47.214Z,53.50
2019-04-19T18:33:14.677Z,53.40
2019-04-19T18:35:44.252Z,53.60
2019-04-19T18:38:19.569Z,53.90
2019-04-19T18:40:42.864Z,54.00
2019-04-19T18:43:21.986Z,54.10
2019-04-19T18:45:42.203Z,54.20
2019-04-19T18:48:09.581Z,54.20
2019-04-19T18:50:50.412Z,54.20
2019-04-19T18:53:30.110Z,54.20
2019-04-19T18:55:53.564Z,54.20
2019-04-19T18:58:28.248Z,54.20
2019-04-19T19:00:52.331Z,54.10
2019-04-19T19:03:20.008Z,54.10
2019-04-19T19:05:55.669Z,54.20
2019-04-19T19:08:25.403Z,54.20
2019-04-19T19:10:51.653Z,54.20
2019-04-19T19:13:27.676Z,54.30
2019-04-19T19:15:52.816Z,54.30
2019-04-19T19:18:19.309Z,54.20
2019-04-19T19:20:49.549Z,54.40
2019-04-19T19:23:32.796Z,54.40
2019-04-19T19:25:55.278Z,54.40
2019-04-19T19:28:19.875Z,54.40
2019-04-19T19:30:47.049Z,54.20
2019-04-19T19:33:19.814Z,54.40
2019-04-19T19:35:52.185Z,54.50
2019-04-19T19:38:19.741Z,54.30
2019-04-19T19:40:59.801Z,54.40
2019-04-19T19:43:37.196Z,54.40
2019-04-19T19:46:04.202Z,54.50
2019-04-19T19:48:39.076Z,54.60
2019-04-19T19:51:06.045Z,54.70
2019-04-19T19:56:11.409Z,54.70
2019-04-19T19:58:25.552Z,54.70
2019-04-19T20:01:00.757Z,54.80
2019-04-19T20:03:17.470Z,54.70
2019-04-19T20:05:42.773Z,54.80
2019-04-19T20:08:14.734Z,54.90
2019-04-19T20:10:43.993Z,55.00
2019-04-19T20:13:14.582Z,54.80
2019-04-19T20:15:42.416Z,55.30
2019-04-19T20:18:10.506Z,54.90
2019-04-19T20:20:41.378Z,54.90
2019-04-19T20:23:12.268Z,54.90
2019-04-19T20:25:45.221Z,55.00
2019-04-19T20:28:07.207Z,55.20
2019-04-19T20:30:39.046Z,55.30
2019-04-19T20:33:10.434Z,55.40
2019-04-19T20:35:34.527Z,55.20
2019-04-19T20:38:07.489Z,55.30
2019-04-19T20:40:32.941Z,55.40
2019-04-19T20:43:20.888Z,55.80
2019-04-19T20:45:40.873Z,55.90
2019-04-19T20:48:07.599Z,56.00
2019-04-19T20:50:42.705Z,55.90
2019-04-19T20:53:20.727Z,55.90
2019-04-19T20:56:03.082Z,56.00
2019-04-19T20:58:27.740Z,56.10
2019-04-19T21:00:50.473Z,56.60
2019-04-19T21:03:26.530Z,56.70
2019-04-19T21:05:50.824Z,56.60
2019-04-19T21:08:22.152Z,57.00
2019-04-19T21:10:53.888Z,57.00
2019-04-19T21:13:20.512Z,57.10
2019-04-19T21:15:46.778Z,57.10
2019-04-19T21:18:21.669Z,57.40
2019-04-19T21:20:44.911Z,57.30
2019-04-19T21:23:22.008Z,57.30
2019-04-19T21:25:53.144Z,57.40
2019-04-19T21:28:14.883Z,57.50
2019-04-19T21:30:46.667Z,57.30
2019-04-19T21:33:15.310Z,57.40
2019-04-19T21:35:49.596Z,57.40
2019-04-19T21:38:15.860Z,57.40
2019-04-19T21:40:43.590Z,57.30
2019-04-19T21:43:11.235Z,57.30
2019-04-19T21:45:44.680Z,57.10
2019-04-19T21:48:08.980Z,57.10
2019-04-19T21:50:41.421Z,57.20
2019-04-19T21:53:09.258Z,57.30
2019-04-19T21:55:40.685Z,57.30
2019-04-19T21:58:09.099Z,57.30
2019-04-19T22:00:49.708Z,57.40
2019-04-19T22:03:18.531Z,57.50
2019-04-19T22:05:49.241Z,57.70
2019-04-19T22:08:23.478Z,58.00
2019-04-19T22:10:50.030Z,58.20
2019-04-19T22:13:17.302Z,58.00
2019-04-19T22:15:51.041Z,58.00
2019-04-19T22:18:16.119Z,58.20
2019-04-19T22:20:51.126Z,58.30
2019-04-19T22:23:14.805Z,58.50
2019-04-19T22:25:52.558Z,58.30
2019-04-19T22:28:13.419Z,58.70
2019-04-19T22:30:45.448Z,58.40
2019-04-19T22:33:12.553Z,58.70
2019-04-19T22:35:41.622Z,58.90
2019-04-19T22:38:14.963Z,58.90
2019-04-19T22:40:40.726Z,58.90
2019-04-19T22:43:12.787Z,59.10
2019-04-19T22:45:40.101Z,59.10
2019-04-19T22:48:14.037Z,59.00
2019-04-19T22:50:39.208Z,58.90
2019-04-19T22:53:06.684Z,59.30
2019-04-19T22:55:45.097Z,59.30
2019-04-19T22:58:05.741Z,59.30
2019-04-19T23:00:38.773Z,59.30
2019-04-19T23:03:08.438Z,59.40
2019-04-19T23:05:41.479Z,59.50
2019-04-19T23:08:06.503Z,59.50
2019-04-19T23:10:44.996Z,59.50
2019-04-19T23:13:09.339Z,59.50
2019-04-19T23:15:38.797Z,60.30
2019-04-19T23:18:10.656Z,59.40
2019-04-19T23:20:37.132Z,59.70
2019-04-19T23:23:07.431Z,60.00
2019-04-19T23:25:38.843Z,60.20
2019-04-19T23:28:20.007Z,60.30
2019-04-19T23:30:39.083Z,60.30
2019-04-19T23:33:14.168Z,60.20
2019-04-19T23:35:44.895Z,60.00
2019-04-19T23:38:18.649Z,60.10
2019-04-19T23:40:42.711Z,60.10
2019-04-19T23:43:10.766Z,60.80
2019-04-19T23:45:43.962Z,61.00
2019-04-19T23:48:08.676Z,61.00
2019-04-19T23:50:40.985Z,61.30
2019-04-19T23:53:10.100Z,61.30
2019-04-19T23:55:38.725Z,61.50
2019-04-19T23:58:06.266Z,61.70
